createdAt,value
2023-03-11T10:11:52.373Z,63.60
2023-03-11T10:14:49.178Z,64.30
2023-03-11T10:17:27.177Z,71.30
2023-03-11T10:20:17.645Z,65.70
2023-03-11T10:23:03.840Z,66.80
2023-03-11T10:25:38.942Z,58.70
2023-03-11T10:28:24.489Z,51.90
2023-03-11T10:31:08.075Z,54.60
2023-03-11T10:33:45.311Z,61.30
2023-03-11T10:36:24.108Z,60.50
2023-03-11T10:38:54.431Z,68.00
2023-03-11T10:45:25.054Z,64.90
2023-03-11T10:47:54.267Z,59.50
2023-03-11T10:50:27.800Z,63.70
2023-03-11T15:03:20.493Z,53.80
2023-03-11T15:05:55.016Z,51.80
2023-03-11T15:08:26.858Z,55.70
2023-03-11T15:11:19.112Z,53.90
2023-03-11T15:13:50.721Z,55.80
2023-03-11T15:16:32.463Z,55.90
2023-03-11T15:19:04.412Z,56.50
2023-03-11T15:21:40.914Z,53.20
2023-03-11T15:24:21.646Z,54.10
2023-03-11T15:27:09.037Z,55.10
2023-03-11T15:29:40.001Z,55.40
2023-03-11T15:32:42.399Z,57.10
2023-03-11T15:35:23.728Z,56.50
2023-03-11T15:38:12.866Z,57.00
2023-03-11T15:40:54.983Z,57.20
2023-03-11T15:43:40.326Z,55.10
2023-03-11T16:13:18.489Z,54.90
2023-03-11T16:15:47.019Z,96.10
2023-03-11T16:18:15.712Z,92.80
2023-03-11T16:20:47.081Z,91.40
2023-03-11T16:23:19.240Z,91.30
2023-03-11T16:25:47.830Z,91.20
2023-03-11T16:28:18.316Z,91.10
2023-03-11T16:30:46.820Z,91.30
2023-03-11T16:33:14.740Z,91.40
2023-03-11T16:35:42.527Z,91.50
2023-03-11T16:38:10.802Z,91.60
2023-03-11T16:40:38.656Z,91.80
2023-03-11T16:43:08.046Z,91.90
2023-03-11T16:45:37.221Z,91.90
2023-03-11T16:48:06.216Z,91.90
2023-03-11T16:50:36.959Z,92.00
2023-03-11T16:53:05.430Z,92.10
2023-03-11T16:55:33.247Z,92.10
2023-03-11T16:58:01.064Z,92.10
2023-03-11T17:00:29.085Z,92.20
2023-03-11T17:02:58.262Z,92.20
2023-03-11T17:05:26.322Z,92.30
2023-03-11T17:07:57.065Z,92.30
2023-03-11T17:10:24.942Z,92.30
2023-03-11T17:12:52.846Z,92.30
2023-03-11T17:15:20.995Z,92.40
2023-03-11T17:17:48.908Z,92.50
2023-03-11T17:20:21.152Z,92.40
2023-03-11T17:22:49.409Z,92.50
2023-03-11T17:25:17.360Z,92.50
